createdAt,value
2024-05-09T00:00:51.749Z,959.71
2024-05-09T00:01:51.775Z,959.70
2024-05-09T00:02:51.698Z,959.75
2024-05-09T00:03:51.755Z,959.76
2024-05-09T00:04:51.701Z,959.72
2024-05-09T00:05:51.952Z,959.65
2024-05-09T00:06:51.659Z,959.68
2024-05-09T00:07:51.752Z,959.66
2024-05-09T00:08:51.625Z,959.67
2024-05-09T00:09:51.595Z,959.66
2024-05-09T00:10:51.703Z,959.68
2024-05-09T00:11:51.821Z,959.69
2024-05-09T00:12:51.634Z,959.62
2024-05-09T00:13:51.602Z,959.63
2024-05-09T00:14:51.578Z,959.65
2024-05-09T00:15:51.530Z,959.62
2024-05-09T00:16:51.524Z,959.63
2024-05-09T00:17:51.904Z,959.61
2024-05-09T00:18:51.564Z,959.68
2024-05-09T00:19:51.519Z,959.62
2024-05-09T00:20:51.584Z,959.69
2024-05-09T00:21:51.556Z,959.61
2024-05-09T00:22:51.519Z,959.65
2024-05-09T00:23:51.441Z,959.65
2024-05-09T00:24:51.471Z,959.63
2024-05-09T00:25:51.476Z,959.64
2024-05-09T00:26:51.418Z,959.67
2024-05-09T00:27:51.401Z,959.64
2024-05-09T00:28:51.429Z,959.66
2024-05-09T00:29:51.405Z,959.66
2024-05-09T00:30:51.390Z,959.63
2024-05-09T00:31:51.485Z,959.62
2024-05-09T00:32:51.754Z,959.64
2024-05-09T00:33:51.537Z,959.64
2024-05-09T00:34:51.346Z,959.62
2024-05-09T00:35:51.308Z,959.61
2024-05-09T00:36:51.328Z,959.60
2024-05-09T00:37:51.343Z,959.58
2024-05-09T00:38:51.272Z,959.58
2024-05-09T00:39:51.275Z,959.60
2024-05-09T00:40:51.291Z,959.61
2024-05-09T00:41:51.268Z,959.62
2024-05-09T00:42:51.235Z,959.65
2024-05-09T00:43:51.339Z,959.61
2024-05-09T00:44:51.232Z,959.59
2024-05-09T00:45:51.281Z,959.63
2024-05-09T00:46:51.252Z,959.61
2024-05-09T00:47:51.741Z,959.60
2024-05-09T00:48:51.306Z,959.60
2024-05-09T00:49:51.237Z,959.59
2024-05-09T00:50:53.976Z,959.58
2024-05-09T00:51:51.207Z,959.60
2024-05-09T00:52:51.213Z,959.59
2024-05-09T00:53:51.103Z,959.61
2024-05-09T00:54:51.092Z,959.57
2024-05-09T00:55:51.112Z,959.55
2024-05-09T00:56:51.086Z,959.57
2024-05-09T00:57:51.092Z,959.54
2024-05-09T00:58:51.126Z,959.57
2024-05-09T00:59:51.066Z,959.55
2024-05-09T01:00:51.225Z,959.59
2024-05-09T01:01:51.147Z,959.58
2024-05-09T01:02:51.206Z,959.59
2024-05-09T01:03:51.441Z,959.63
2024-05-09T01:04:51.085Z,959.59
2024-05-09T01:05:51.316Z,959.62
2024-05-09T01:06:51.016Z,959.63
2024-05-09T01:07:51.024Z,959.62
2024-05-09T01:08:50.947Z,959.60
2024-05-09T01:09:50.927Z,959.67
2024-05-09T01:10:51.067Z,959.65
2024-05-09T01:11:51.139Z,959.60
2024-05-09T01:12:50.930Z,959.62
2024-05-09T01:13:51.027Z,959.67
2024-05-09T01:14:50.919Z,959.66
2024-05-09T01:15:50.898Z,959.65
2024-05-09T01:16:50.990Z,959.68
2024-05-09T01:17:51.112Z,959.65
2024-05-09T01:18:50.987Z,959.62
2024-05-09T01:19:50.933Z,959.61
2024-05-09T01:20:50.924Z,959.62
2024-05-09T01:21:50.804Z,959.62
2024-05-09T01:22:50.877Z,959.62
2024-05-09T01:23:50.806Z,959.64
2024-05-09T01:24:50.773Z,959.62
2024-05-09T01:25:50.797Z,959.65
2024-05-09T01:26:50.743Z,959.71
2024-05-09T01:27:50.763Z,959.72
2024-05-09T01:28:50.843Z,959.70
2024-05-09T01:29:50.709Z,959.72
2024-05-09T01:30:50.701Z,959.71
2024-05-09T01:31:50.776Z,959.66
2024-05-09T01:32:50.985Z,959.64
2024-05-09T01:33:50.757Z,959.71
2024-05-09T01:34:50.702Z,959.68
2024-05-09T01:35:50.649Z,959.70
2024-05-09T01:36:50.632Z,959.71
2024-05-09T01:37:50.676Z,959.67
2024-05-09T01:38:50.607Z,959.63
2024-05-09T01:39:50.644Z,959.64
2024-05-09T01:40:50.660Z,959.65
2024-05-09T01:41:50.592Z,959.66
2024-05-09T01:42:50.593Z,959.66
2024-05-09T01:43:50.548Z,959.61
2024-05-09T01:44:50.546Z,959.64
2024-05-09T01:45:50.522Z,959.68
2024-05-09T01:46:50.556Z,959.61
2024-05-09T01:47:50.864Z,959.62
2024-05-09T01:48:50.616Z,959.62
2024-05-09T01:49:50.528Z,959.63
2024-05-09T01:50:50.541Z,959.60
2024-05-09T01:51:50.471Z,959.62
2024-05-09T01:52:50.459Z,959.61
2024-05-09T01:53:50.576Z,959.66
2024-05-09T01:54:50.450Z,959.63
2024-05-09T01:55:50.502Z,959.64
2024-05-09T01:56:50.403Z,959.62
2024-05-09T01:57:50.427Z,959.64
2024-05-09T01:58:50.402Z,959.64
2024-05-09T01:59:50.490Z,959.64
2024-05-09T02:00:50.443Z,959.68
2024-05-09T02:01:56.736Z,959.64
2024-05-09T02:02:51.649Z,959.66
2024-05-09T02:03:50.791Z,959.65
2024-05-09T02:04:50.466Z,959.65
2024-05-09T02:05:50.594Z,959.64
2024-05-09T02:06:50.334Z,959.65
2024-05-09T02:07:50.316Z,959.62
2024-05-09T02:08:50.269Z,959.67
2024-05-09T02:09:50.260Z,959.67
2024-05-09T02:10:50.993Z,959.66
2024-05-09T02:11:50.319Z,959.65
2024-05-09T02:12:50.233Z,959.66
2024-05-09T02:13:50.268Z,959.63
2024-05-09T02:14:50.204Z,959.63
2024-05-09T02:15:50.219Z,959.62
2024-05-09T02:16:50.236Z,959.63
2024-05-09T02:17:50.620Z,959.61
2024-05-09T02:18:50.305Z,959.61
2024-05-09T02:19:50.226Z,959.60
2024-05-09T02:20:50.222Z,959.63
2024-05-09T02:21:50.140Z,959.62
2024-05-09T02:22:50.134Z,959.62
2024-05-09T02:23:50.137Z,959.58
2024-05-09T02:24:50.110Z,959.63
2024-05-09T02:25:50.131Z,959.61
2024-05-09T02:26:50.115Z,959.62
2024-05-09T02:27:50.082Z,959.63
2024-05-09T02:28:50.097Z,959.61
2024-05-09T02:29:50.044Z,959.62
2024-05-09T02:30:50.041Z,959.61
2024-05-09T02:31:50.144Z,959.66
2024-05-09T02:32:50.213Z,959.64
2024-05-09T02:33:50.483Z,959.63
2024-05-09T02:34:50.053Z,959.60
2024-05-09T02:35:50.019Z,959.60
2024-05-09T02:36:50.004Z,959.66
2024-05-09T02:37:50.008Z,959.64
2024-05-09T02:38:49.973Z,959.63
2024-05-09T02:39:49.932Z,959.63
2024-05-09T02:40:49.938Z,959.56
2024-05-09T02:41:49.926Z,959.61
2024-05-09T02:42:49.882Z,959.63
2024-05-09T02:43:49.881Z,959.62
2024-05-09T02:44:49.892Z,959.63
2024-05-09T02:45:49.859Z,959.63
2024-05-09T02:46:49.922Z,959.60
2024-05-09T02:47:50.022Z,959.60
2024-05-09T02:48:49.943Z,959.60
2024-05-09T02:49:49.860Z,959.57
2024-05-09T02:50:49.878Z,959.57
2024-05-09T02:51:49.821Z,959.58
2024-05-09T02:52:49.849Z,959.61
2024-05-09T02:53:49.779Z,959.57
2024-05-09T02:54:49.765Z,959.60
2024-05-09T02:55:49.762Z,959.62
2024-05-09T02:56:49.735Z,959.63
2024-05-09T02:57:49.885Z,959.61
2024-05-09T02:58:49.743Z,959.60
2024-05-09T02:59:49.696Z,959.60
2024-05-09T03:00:49.856Z,959.59
2024-05-09T03:01:49.802Z,959.59
2024-05-09T03:02:49.853Z,959.61
2024-05-09T03:03:49.950Z,959.63
2024-05-09T03:04:49.807Z,959.62
2024-05-09T03:05:49.677Z,959.60
2024-05-09T03:06:49.619Z,959.59
2024-05-09T03:07:49.658Z,959.63
2024-05-09T03:08:49.632Z,959.61
2024-05-09T03:09:49.592Z,959.58
2024-05-09T03:10:49.616Z,959.62
2024-05-09T03:11:49.691Z,959.56
2024-05-09T03:12:49.546Z,959.60
2024-05-09T03:13:49.603Z,959.60
2024-05-09T03:14:49.576Z,959.58
2024-05-09T03:15:49.551Z,959.58
2024-05-09T03:16:49.520Z,959.58
2024-05-09T03:17:49.704Z,959.57
2024-05-09T03:18:49.653Z,959.57
2024-05-09T03:19:49.506Z,959.60
2024-05-09T03:20:49.742Z,959.58
2024-05-09T03:21:49.451Z,959.60
2024-05-09T03:22:49.492Z,959.58
2024-05-09T03:23:49.493Z,959.60
2024-05-09T03:24:49.467Z,959.64
2024-05-09T03:25:49.473Z,959.65
2024-05-09T03:26:49.513Z,959.61
2024-05-09T03:27:49.383Z,959.65
2024-05-09T03:28:49.416Z,959.62
2024-05-09T03:29:49.504Z,959.69
2024-05-09T03:30:49.383Z,959.62
2024-05-09T03:31:49.473Z,959.64
2024-05-09T03:32:49.531Z,959.70
2024-05-09T03:33:49.453Z,959.69
2024-05-09T03:34:49.329Z,959.63
2024-05-09T03:35:56.329Z,959.64
2024-05-09T03:36:49.311Z,959.61
2024-05-09T03:37:49.367Z,959.60
2024-05-09T03:38:49.264Z,959.57
2024-05-09T03:39:49.269Z,959.56
2024-05-09T03:40:50.229Z,959.53
2024-05-09T03:41:49.245Z,959.53
2024-05-09T03:42:49.266Z,959.51
2024-05-09T03:43:49.246Z,959.57
2024-05-09T03:44:49.192Z,959.55
2024-05-09T03:45:49.203Z,959.56
2024-05-09T03:46:49.221Z,959.59
2024-05-09T03:47:49.607Z,959.55
2024-05-09T03:48:49.199Z,959.57
2024-05-09T03:49:49.222Z,959.53
2024-05-09T03:50:49.181Z,959.57
2024-05-09T03:51:49.115Z,959.55
2024-05-09T03:52:49.146Z,959.56
2024-05-09T03:53:49.127Z,959.58
2024-05-09T03:54:49.082Z,959.58
2024-05-09T03:55:49.149Z,959.54
2024-05-09T03:56:49.075Z,959.57
2024-05-09T03:57:49.051Z,959.55
2024-05-09T03:58:49.094Z,959.54
2024-05-09T03:59:49.051Z,959.53
2024-05-09T04:00:49.080Z,959.48
2024-05-09T04:01:49.143Z,959.55
2024-05-09T04:02:49.063Z,959.52
2024-05-09T04:03:49.324Z,959.52
2024-05-09T04:04:49.124Z,959.50
2024-05-09T04:05:49.016Z,959.52
2024-05-09T04:06:48.987Z,959.48
2024-05-09T04:07:48.985Z,959.50
2024-05-09T04:08:48.977Z,959.55
2024-05-09T04:09:48.920Z,959.54
2024-05-09T04:10:48.955Z,959.55
2024-05-09T04:11:49.101Z,959.54
2024-05-09T04:12:48.929Z,959.51
2024-05-09T04:13:48.944Z,959.48
2024-05-09T04:14:48.874Z,959.54
2024-05-09T04:15:48.844Z,959.52
2024-05-09T04:16:48.968Z,959.53
2024-05-09T04:17:49.266Z,959.55
2024-05-09T04:18:49.270Z,959.53
2024-05-09T04:19:48.962Z,959.59
2024-05-09T04:20:48.854Z,959.60
2024-05-09T04:21:48.808Z,959.59
2024-05-09T04:22:48.835Z,959.58
2024-05-09T04:23:48.829Z,959.65
2024-05-09T04:24:48.742Z,959.62
2024-05-09T04:25:48.780Z,959.61
2024-05-09T04:26:48.785Z,959.71
2024-05-09T04:27:48.714Z,959.66
2024-05-09T04:28:48.772Z,959.72
2024-05-09T04:29:48.690Z,959.69
2024-05-09T04:30:48.692Z,959.70
2024-05-09T04:31:48.802Z,959.70
2024-05-09T04:32:48.822Z,959.70
2024-05-09T04:33:48.751Z,959.71
2024-05-09T04:34:48.680Z,959.75
2024-05-09T04:35:48.628Z,959.73
2024-05-09T04:36:48.675Z,959.76
2024-05-09T04:37:48.629Z,959.68
2024-05-09T04:38:48.593Z,959.73
2024-05-09T04:39:48.601Z,959.75
2024-05-09T04:40:48.628Z,959.67
2024-05-09T04:41:48.562Z,959.71
2024-05-09T04:42:48.587Z,959.68
2024-05-09T04:43:48.599Z,959.71
2024-05-09T04:44:48.540Z,959.71
2024-05-09T04:45:48.540Z,959.66
2024-05-09T04:46:48.531Z,959.70
2024-05-09T04:47:48.765Z,959.68
2024-05-09T04:48:48.652Z,959.69
2024-05-09T04:49:48.525Z,959.70
2024-05-09T04:50:48.484Z,959.69
2024-05-09T04:51:48.556Z,959.73
2024-05-09T04:52:48.517Z,959.73
2024-05-09T04:53:48.527Z,959.77
2024-05-09T04:54:48.420Z,959.76
2024-05-09T04:55:48.480Z,959.75
2024-05-09T04:56:48.398Z,959.77
2024-05-09T04:57:48.411Z,959.73
2024-05-09T04:58:48.442Z,959.72
2024-05-09T04:59:48.354Z,959.75
2024-05-09T05:00:48.422Z,959.70
2024-05-09T05:01:48.493Z,959.71
2024-05-09T05:02:48.438Z,959.71
2024-05-09T05:03:48.484Z,959.72
2024-05-09T05:04:48.399Z,959.70
2024-05-09T05:05:48.327Z,959.70
2024-05-09T05:06:48.280Z,959.71
2024-05-09T05:07:48.308Z,959.71
2024-05-09T05:08:48.295Z,959.74
2024-05-09T05:09:48.247Z,959.76
2024-05-09T05:10:49.242Z,959.69
2024-05-09T05:11:48.302Z,959.71
2024-05-09T05:12:48.253Z,959.78
2024-05-09T05:13:48.350Z,959.72
2024-05-09T05:14:48.233Z,959.68
2024-05-09T05:15:48.180Z,959.71
2024-05-09T05:16:48.214Z,959.69
2024-05-09T05:17:48.301Z,959.69
2024-05-09T05:18:48.248Z,959.70
2024-05-09T05:19:48.382Z,959.71
2024-05-09T05:20:48.237Z,959.70
2024-05-09T05:21:48.103Z,959.65
2024-05-09T05:22:48.191Z,959.69
2024-05-09T05:23:48.169Z,959.69
2024-05-09T05:24:48.085Z,959.71
2024-05-09T05:25:48.447Z,959.69
2024-05-09T05:26:48.134Z,959.73
2024-05-09T05:27:48.104Z,959.73
2024-05-09T05:28:48.304Z,959.73
2024-05-09T05:29:48.076Z,959.71
2024-05-09T05:30:48.014Z,959.72
2024-05-09T05:31:48.031Z,959.71
2024-05-09T05:32:48.215Z,959.66
2024-05-09T05:33:48.098Z,959.67
2024-05-09T05:34:48.009Z,959.69
2024-05-09T05:35:48.161Z,959.67
2024-05-09T05:36:47.939Z,959.71
2024-05-09T05:37:47.966Z,959.68
2024-05-09T05:38:48.006Z,959.66
2024-05-09T05:39:47.915Z,959.70
2024-05-09T05:40:47.930Z,959.71
2024-05-09T05:41:47.893Z,959.72
2024-05-09T05:42:47.918Z,959.72
2024-05-09T05:43:47.911Z,959.70
2024-05-09T05:44:47.964Z,959.69
2024-05-09T05:45:47.838Z,959.70
2024-05-09T05:46:47.864Z,959.72
2024-05-09T05:47:48.140Z,959.70
2024-05-09T05:48:48.093Z,959.74
2024-05-09T05:49:47.820Z,959.73
2024-05-09T05:50:47.884Z,959.76
2024-05-09T05:51:47.786Z,959.75
2024-05-09T05:52:47.794Z,959.70
2024-05-09T05:53:47.814Z,959.67
2024-05-09T05:54:47.839Z,959.70
2024-05-09T05:55:47.757Z,959.70
2024-05-09T05:56:47.730Z,959.75
2024-05-09T05:57:47.716Z,959.70
2024-05-09T05:58:47.762Z,959.74
2024-05-09T05:59:47.745Z,959.74
2024-05-09T06:00:47.755Z,959.77
2024-05-09T06:01:47.685Z,959.80
2024-05-09T06:02:47.791Z,959.74
2024-05-09T06:03:47.834Z,959.80
2024-05-09T06:04:47.773Z,959.75
2024-05-09T06:05:47.641Z,959.73
2024-05-09T06:06:47.634Z,959.77
2024-05-09T06:07:47.635Z,959.78
2024-05-09T06:08:47.833Z,959.82
2024-05-09T06:09:49.975Z,959.84
2024-05-09T06:10:47.716Z,959.79
2024-05-09T06:11:47.616Z,959.88
2024-05-09T06:12:47.527Z,959.79
2024-05-09T06:13:47.699Z,959.79
2024-05-09T06:14:47.615Z,959.84
2024-05-09T06:15:47.517Z,959.85
2024-05-09T06:16:47.640Z,959.87
2024-05-09T06:17:47.634Z,959.88
2024-05-09T06:18:47.760Z,959.84
2024-05-09T06:19:47.717Z,959.88
2024-05-09T06:20:47.703Z,959.88
2024-05-09T06:21:47.438Z,959.92
2024-05-09T06:22:47.499Z,959.88
2024-05-09T06:23:47.479Z,959.84
2024-05-09T06:24:47.414Z,959.84
2024-05-09T06:25:47.462Z,959.85
2024-05-09T06:26:47.468Z,959.81
2024-05-09T06:27:47.364Z,959.84
2024-05-09T06:28:47.541Z,959.90
2024-05-09T06:29:47.344Z,959.87
2024-05-09T06:30:47.362Z,959.89
2024-05-09T06:31:47.353Z,959.88
2024-05-09T06:32:47.380Z,959.91
2024-05-09T06:33:47.400Z,959.88
2024-05-09T06:34:47.450Z,959.94
2024-05-09T06:35:47.393Z,959.94
2024-05-09T06:36:47.265Z,959.94
2024-05-09T06:37:47.269Z,959.92
2024-05-09T06:38:47.334Z,959.91
2024-05-09T06:39:47.251Z,959.93
2024-05-09T06:40:47.260Z,959.93
2024-05-09T06:41:47.197Z,959.99
2024-05-09T06:42:47.248Z,960.02
2024-05-09T06:43:47.224Z,960.03
2024-05-09T06:44:47.171Z,960.09
2024-05-09T06:45:47.715Z,960.10
2024-05-09T06:46:47.217Z,960.05
2024-05-09T06:47:47.317Z,960.01
2024-05-09T06:48:47.278Z,960.00
2024-05-09T06:49:47.207Z,960.00
2024-05-09T06:50:47.202Z,959.97
2024-05-09T06:51:47.098Z,959.98
2024-05-09T06:52:47.410Z,959.97
2024-05-09T06:53:47.179Z,959.91
2024-05-09T06:54:47.052Z,959.94
2024-05-09T06:55:47.079Z,960.02
2024-05-09T06:56:47.052Z,959.99
2024-05-09T06:57:47.021Z,959.97
2024-05-09T06:58:47.159Z,959.99
2024-05-09T06:59:47.008Z,959.98
2024-05-09T07:00:47.113Z,960.03
2024-05-09T07:01:47.003Z,960.05
2024-05-09T07:02:47.016Z,960.05
2024-05-09T07:03:47.285Z,960.04
2024-05-09T07:04:47.159Z,960.00
2024-05-09T07:05:48.003Z,960.03
2024-05-09T07:06:46.947Z,960.02
2024-05-09T07:07:47.070Z,960.08
2024-05-09T07:08:48.744Z,960.08
2024-05-09T07:09:46.890Z,960.13
2024-05-09T07:10:48.001Z,960.06
2024-05-09T07:11:46.924Z,960.11
2024-05-09T07:12:46.859Z,960.11
2024-05-09T07:13:46.870Z,960.14
2024-05-09T07:14:46.893Z,960.13
2024-05-09T07:15:46.907Z,960.11
2024-05-09T07:16:47.040Z,960.16
2024-05-09T07:17:46.971Z,960.21
2024-05-09T07:18:46.973Z,960.15
2024-05-09T07:19:46.955Z,960.15
2024-05-09T07:20:47.561Z,960.16
2024-05-09T07:21:46.755Z,960.22
2024-05-09T07:22:46.872Z,960.13
2024-05-09T07:23:47.541Z,960.14
2024-05-09T07:24:46.790Z,960.10
2024-05-09T07:25:46.946Z,960.12
2024-05-09T07:26:46.752Z,960.10
2024-05-09T07:27:46.686Z,960.06
2024-05-09T07:28:46.856Z,960.09
2024-05-09T07:29:46.703Z,960.06
2024-05-09T07:30:46.730Z,960.09
2024-05-09T07:31:46.711Z,960.15
2024-05-09T07:32:46.896Z,960.10
2024-05-09T07:33:46.810Z,960.07
2024-05-09T07:34:46.674Z,960.11
2024-05-09T07:35:46.679Z,960.06
2024-05-09T07:36:46.707Z,960.10
2024-05-09T07:37:46.599Z,960.09
2024-05-09T07:38:46.581Z,960.07
2024-05-09T07:39:46.612Z,960.04
2024-05-09T07:40:46.903Z,960.03
2024-05-09T07:41:46.643Z,960.04
2024-05-09T07:42:46.567Z,960.05
2024-05-09T07:43:46.580Z,960.01
2024-05-09T07:44:46.535Z,960.04
2024-05-09T07:45:52.215Z,959.98
2024-05-09T07:47:48.606Z,960.03
2024-05-09T07:49:12.751Z,960.01
2024-05-09T07:53:16.989Z,959.95
2024-05-09T07:53:34.655Z,959.97
2024-05-09T07:53:50.975Z,959.98
2024-05-09T07:54:47.634Z,959.94
2024-05-09T07:55:49.750Z,959.91
2024-05-09T07:56:46.787Z,959.91
2024-05-09T07:57:46.393Z,959.95
2024-05-09T07:58:46.328Z,959.94
2024-05-09T07:59:46.326Z,959.96
2024-05-09T08:00:46.925Z,960.02
2024-05-09T08:01:46.461Z,959.99
2024-05-09T08:02:46.323Z,959.99
2024-05-09T08:03:46.557Z,959.97
2024-05-09T08:04:46.430Z,959.98
2024-05-09T08:05:46.283Z,959.98
2024-05-09T08:06:46.334Z,959.99
2024-05-09T08:07:46.328Z,960.02
2024-05-09T08:08:46.297Z,960.01
2024-05-09T08:09:46.267Z,960.03
2024-05-09T08:10:46.445Z,960.03
2024-05-09T08:11:46.485Z,960.02
2024-05-09T08:12:46.217Z,960.04
2024-05-09T08:13:46.157Z,959.99
2024-05-09T08:14:46.157Z,960.06
2024-05-09T08:15:46.311Z,960.04
2024-05-09T08:16:46.245Z,960.05
2024-05-09T08:17:46.174Z,960.08
2024-05-09T08:18:46.170Z,960.05
2024-05-09T08:19:46.175Z,960.08
2024-05-09T08:20:46.080Z,960.14
2024-05-09T08:21:46.145Z,960.11
2024-05-09T08:22:46.060Z,960.11
2024-05-09T08:23:46.076Z,960.06
2024-05-09T08:24:46.078Z,960.02
2024-05-09T08:25:46.081Z,960.02
2024-05-09T08:26:46.118Z,960.06
2024-05-09T08:27:46.023Z,960.04
2024-05-09T08:28:46.019Z,960.04
2024-05-09T08:29:46.096Z,960.04
2024-05-09T08:30:46.130Z,960.04
2024-05-09T08:31:46.835Z,959.99
2024-05-09T08:32:45.994Z,960.00
2024-05-09T08:33:46.150Z,960.05
2024-05-09T08:34:45.977Z,960.01
2024-05-09T08:35:45.911Z,960.04
2024-05-09T08:36:46.080Z,960.00
2024-05-09T08:37:45.995Z,960.05
2024-05-09T08:38:45.888Z,960.00
2024-05-09T08:39:45.870Z,959.97
2024-05-09T08:40:46.325Z,960.09
2024-05-09T08:41:45.867Z,960.09
2024-05-09T08:42:45.880Z,960.03
2024-05-09T08:43:45.829Z,960.00
2024-05-09T08:44:45.821Z,960.03
2024-05-09T08:45:45.968Z,960.02
2024-05-09T08:46:45.878Z,959.98
2024-05-09T08:47:45.873Z,960.00
2024-05-09T08:48:46.073Z,960.01
2024-05-09T08:49:45.836Z,960.00
2024-05-09T08:50:46.137Z,960.01
2024-05-09T08:51:45.785Z,959.99
2024-05-09T08:52:45.797Z,960.03
2024-05-09T08:53:45.833Z,960.00
2024-05-09T08:54:45.781Z,960.09
2024-05-09T08:55:45.794Z,960.05
2024-05-09T08:56:45.676Z,960.04
2024-05-09T08:57:45.712Z,960.02
2024-05-09T08:58:45.691Z,959.98
2024-05-09T08:59:45.754Z,960.04
2024-05-09T09:00:46.309Z,960.08
2024-05-09T09:01:45.716Z,959.97
2024-05-09T09:02:45.824Z,959.96
2024-05-09T09:03:45.898Z,959.96
2024-05-09T09:04:45.852Z,960.04
2024-05-09T09:05:45.681Z,960.01
2024-05-09T09:06:47.155Z,959.97
2024-05-09T09:07:46.398Z,959.93
2024-05-09T09:08:45.545Z,960.06
2024-05-09T09:09:45.586Z,960.02
2024-05-09T09:10:45.666Z,960.06
2024-05-09T09:11:45.638Z,960.01
2024-05-09T09:12:45.562Z,960.04
2024-05-09T09:13:45.558Z,960.03
2024-05-09T09:14:45.468Z,960.08
2024-05-09T09:15:45.523Z,960.11
2024-05-09T09:16:45.469Z,960.09
2024-05-09T09:17:45.541Z,960.13
2024-05-09T09:18:45.584Z,960.11
2024-05-09T09:19:45.474Z,960.05
2024-05-09T09:20:45.626Z,960.08
2024-05-09T09:21:45.433Z,960.04
2024-05-09T09:22:45.410Z,960.13
2024-05-09T09:23:45.385Z,960.06
2024-05-09T09:24:45.389Z,960.08
2024-05-09T09:25:45.366Z,960.04
2024-05-09T09:26:45.366Z,960.03
2024-05-09T09:27:45.466Z,959.99
2024-05-09T09:28:45.333Z,960.02
2024-05-09T09:29:45.320Z,959.99
2024-05-09T09:30:45.354Z,960.03
2024-05-09T09:31:45.286Z,960.04
2024-05-09T09:32:45.445Z,960.04
2024-05-09T09:33:45.500Z,960.06
2024-05-09T09:34:45.350Z,960.02
2024-05-09T09:35:45.258Z,960.04
2024-05-09T09:36:52.939Z,960.03
2024-05-09T09:37:45.254Z,959.98
2024-05-09T09:38:45.219Z,959.95
2024-05-09T09:39:49.040Z,959.98
2024-05-09T09:40:49.096Z,959.94
2024-05-09T09:41:45.286Z,959.93
2024-05-09T09:42:45.204Z,960.00
2024-05-09T09:43:45.190Z,960.00
2024-05-09T09:44:54.459Z,959.98
2024-05-09T09:45:46.138Z,959.99
2024-05-09T09:46:45.144Z,959.99
2024-05-09T09:47:45.310Z,960.01
2024-05-09T09:48:45.341Z,960.02
2024-05-09T09:49:45.245Z,960.05
2024-05-09T09:50:45.077Z,960.04
2024-05-09T09:51:45.114Z,960.00
2024-05-09T09:52:45.060Z,960.03
2024-05-09T09:53:45.052Z,960.00
2024-05-09T09:54:45.117Z,960.05
2024-05-09T09:55:45.010Z,959.98
2024-05-09T09:56:45.003Z,960.04
2024-05-09T09:57:45.025Z,960.00
2024-05-09T09:58:45.008Z,960.00
2024-05-09T09:59:45.022Z,959.99
2024-05-09T10:00:45.371Z,960.05
2024-05-09T10:01:45.171Z,959.98
2024-05-09T10:02:44.944Z,960.01
2024-05-09T10:03:45.151Z,959.99
2024-05-09T10:04:45.037Z,959.92
2024-05-09T10:05:47.081Z,959.94
2024-05-09T10:06:44.908Z,959.95
2024-05-09T10:07:44.876Z,959.98
2024-05-09T10:08:44.880Z,960.03
2024-05-09T10:09:44.921Z,959.99
2024-05-09T10:10:45.003Z,960.00
2024-05-09T10:11:49.252Z,960.01
2024-05-09T10:12:45.864Z,959.96
2024-05-09T10:13:44.828Z,959.99
2024-05-09T10:14:44.847Z,960.09
2024-05-09T10:15:45.047Z,960.07
2024-05-09T10:16:44.842Z,960.09
2024-05-09T10:17:44.902Z,960.06
2024-05-09T10:18:44.946Z,960.07
2024-05-09T10:19:44.854Z,960.00
2024-05-09T10:20:44.901Z,959.99
2024-05-09T10:21:44.799Z,960.03
2024-05-09T10:22:44.713Z,959.99
2024-05-09T10:23:44.700Z,960.02
2024-05-09T10:24:44.735Z,960.03
2024-05-09T10:25:44.693Z,960.02
2024-05-09T10:26:44.703Z,959.97
2024-05-09T10:27:44.727Z,959.99
2024-05-09T10:28:44.649Z,959.94
2024-05-09T10:29:44.625Z,959.94
2024-05-09T10:30:46.581Z,960.00
2024-05-09T10:31:44.736Z,959.94
2024-05-09T10:32:44.747Z,960.00
2024-05-09T10:33:44.757Z,959.96
2024-05-09T10:34:44.747Z,959.98
2024-05-09T10:35:44.700Z,959.94
2024-05-09T10:36:44.690Z,959.94
2024-05-09T10:37:44.542Z,959.91
2024-05-09T10:38:44.537Z,959.94
2024-05-09T10:39:44.554Z,959.90
2024-05-09T10:40:44.672Z,959.91
2024-05-09T10:41:44.518Z,959.93
2024-05-09T10:42:44.556Z,959.83
2024-05-09T10:43:44.477Z,959.86
2024-05-09T10:44:44.493Z,959.83
2024-05-09T10:45:44.534Z,959.85
2024-05-09T10:46:44.471Z,959.83
2024-05-09T10:47:44.533Z,959.82
2024-05-09T10:48:44.925Z,959.77
2024-05-09T10:49:44.480Z,959.76
2024-05-09T10:50:44.393Z,959.79
2024-05-09T10:51:44.588Z,959.77
2024-05-09T10:52:44.392Z,959.75
2024-05-09T10:53:44.419Z,959.76
2024-05-09T10:54:44.409Z,959.75
2024-05-09T10:55:44.399Z,959.71
2024-05-09T10:56:44.360Z,959.73
2024-05-09T10:57:44.369Z,959.69
2024-05-09T10:58:44.318Z,959.73
2024-05-09T10:59:44.320Z,959.70
2024-05-09T11:00:44.407Z,959.72
2024-05-09T11:01:44.688Z,959.70
2024-05-09T11:02:44.453Z,959.71
2024-05-09T11:03:44.416Z,959.67
2024-05-09T11:04:44.470Z,959.67
2024-05-09T11:05:44.424Z,959.64
2024-05-09T11:06:44.281Z,959.63
2024-05-09T11:07:44.196Z,959.62
2024-05-09T11:08:44.212Z,959.61
2024-05-09T11:09:44.227Z,959.65
2024-05-09T11:10:44.405Z,959.68
2024-05-09T11:11:44.200Z,959.64
2024-05-09T11:12:44.179Z,959.66
2024-05-09T11:13:44.164Z,959.65
2024-05-09T11:14:44.141Z,959.64
2024-05-09T11:15:44.180Z,959.60
2024-05-09T11:16:44.135Z,959.61
2024-05-09T11:17:44.295Z,959.61
2024-05-09T11:18:44.368Z,959.62
2024-05-09T11:19:44.140Z,959.60
2024-05-09T11:20:44.241Z,959.56
2024-05-09T11:21:44.092Z,959.54
2024-05-09T11:22:44.074Z,959.56
2024-05-09T11:23:44.028Z,959.57
2024-05-09T11:24:44.062Z,959.60
2024-05-09T11:25:44.080Z,959.63
2024-05-09T11:26:44.036Z,959.60
2024-05-09T11:27:44.046Z,959.58
2024-05-09T11:28:43.972Z,959.58
2024-05-09T11:29:43.977Z,959.54
2024-05-09T11:30:43.978Z,959.53
2024-05-09T11:31:44.024Z,959.60
2024-05-09T11:32:44.069Z,959.58
2024-05-09T11:33:44.215Z,959.53
2024-05-09T11:34:43.959Z,959.52
2024-05-09T11:35:43.946Z,959.55
2024-05-09T11:36:43.942Z,959.49
2024-05-09T11:37:43.898Z,959.43
2024-05-09T11:38:43.887Z,959.50
2024-05-09T11:39:43.900Z,959.40
2024-05-09T11:40:43.980Z,959.42
2024-05-09T11:41:43.843Z,959.35
2024-05-09T11:42:43.853Z,959.35
2024-05-09T11:43:43.832Z,959.35
2024-05-09T11:44:43.805Z,959.37
2024-05-09T11:45:43.801Z,959.39
2024-05-09T11:46:43.773Z,959.41
2024-05-09T11:47:43.882Z,959.33
2024-05-09T11:48:43.944Z,959.37
2024-05-09T11:49:43.764Z,959.43
2024-05-09T11:50:43.785Z,959.43
2024-05-09T11:51:43.782Z,959.37
2024-05-09T11:52:43.712Z,959.38
2024-05-09T11:53:43.713Z,959.38
2024-05-09T11:54:43.715Z,959.32
2024-05-09T11:55:43.660Z,959.30
2024-05-09T11:56:43.732Z,959.25
2024-05-09T11:57:43.670Z,959.25
2024-05-09T11:58:43.692Z,959.34
2024-05-09T11:59:43.628Z,959.28
2024-05-09T12:00:43.819Z,959.27
2024-05-09T12:01:43.849Z,959.32
2024-05-09T12:02:43.647Z,959.31
2024-05-09T12:03:43.787Z,959.34
2024-05-09T12:04:43.728Z,959.29
2024-05-09T12:05:43.720Z,959.27
2024-05-09T12:06:43.561Z,959.23
2024-05-09T12:07:43.547Z,959.23
2024-05-09T12:08:43.649Z,959.19
2024-05-09T12:09:43.631Z,959.26
2024-05-09T12:10:43.642Z,959.27
2024-05-09T12:11:43.555Z,959.26
2024-05-09T12:12:43.566Z,959.24
2024-05-09T12:13:43.521Z,959.29
2024-05-09T12:14:43.496Z,959.24
2024-05-09T12:15:43.504Z,959.26
2024-05-09T12:16:43.571Z,959.21
2024-05-09T12:17:44.159Z,959.21
2024-05-09T12:18:43.537Z,959.22
2024-05-09T12:19:43.499Z,959.20
2024-05-09T12:20:43.455Z,959.16
2024-05-09T12:21:43.466Z,959.14
2024-05-09T12:22:43.498Z,959.17
2024-05-09T12:23:43.364Z,959.18
2024-05-09T12:24:43.389Z,959.12
2024-05-09T12:25:43.368Z,959.14
2024-05-09T12:26:43.333Z,959.17
2024-05-09T12:27:43.350Z,959.15
2024-05-09T12:28:43.353Z,959.11
2024-05-09T12:29:43.295Z,959.10
2024-05-09T12:30:43.352Z,959.09
2024-05-09T12:31:43.272Z,959.09